Time;durP1;ratioP1;P1;durP2;ratioP2;P2;SDS_P1;SDS_P2;PMS_P1;PMS_P2;Temp;Humidity;BMP_temperature;BMP_pressure;BME280_temperature;BME280_humidity;BME280_pressure;Samples;Min_cycle;Max_cycle;Signal;HPM_P1;HPM_P2
2024/01/09 14:31:14;;;;;;;;;;;0.50;99.90;;;;;;5084108;27;19924;-66
2024/01/09 14:33:41;;;;;;;;;;;0.60;99.90;;;;;;5084738;28;19939;-66
2024/01/09 14:36:07;;;;;;;;;;;0.80;99.90;;;;;;5083579;28;20440;-65
2024/01/09 14:38:34;;;;;;;;;;;0.70;99.90;;;;;;5083351;28;19978;-66
2024/01/09 14:41:00;;;;;;;;;;;0.70;99.90;;;;;;5083621;28;19932;-66
2024/01/09 14:43:27;;;;;;;;;;;0.70;99.90;;;;;;5083360;28;19932;-66
2024/01/09 14:45:53;;;;;;;;;;;0.60;99.90;;;;;;5083352;28;20048;-66
2024/01/09 14:48:22;;;;;;;;;;;0.50;99.90;;;;;;5084539;28;20015;-65
2024/01/09 14:50:49;;;;;;;;;;;0.30;99.90;;;;;;5083659;28;19936;-65
2024/01/09 14:53:15;;;;;;;;;;;0.00;99.90;;;;;;5084267;28;20438;-65
2024/01/09 14:55:42;;;;;;;;;;;-0.10;99.90;;;;;;5084357;28;19932;-66
2024/01/09 14:58:08;;;;;;;;;;;-0.30;99.90;;;;;;5083852;28;20542;-66
2024/01/09 15:00:35;;;;;;;;;;;-0.50;99.90;;;;;;5084318;28;19936;-65
2024/01/09 15:03:02;;;;;;;;;;;-0.70;99.90;;;;;;5083251;28;19986;-65
2024/01/09 15:05:30;;;;;;;;;;;-0.70;99.90;;;;;;5084049;28;19964;-65
2024/01/09 15:07:57;;;;;;;;;;;-0.90;99.90;;;;;;5082363;28;19974;-65
2024/01/09 15:10:23;;;;;;;;;;;-1.00;99.90;;;;;;5083572;28;19933;-65
2024/01/09 15:12:51;;;;;;;;;;;-1.10;99.90;;;;;;5082984;28;19939;-65
2024/01/09 15:15:17;;;;;;;;;;;-1.20;99.90;;;;;;5083619;28;19932;-65
2024/01/09 15:17:44;;;;;;;;;;;-1.20;99.90;;;;;;5082978;28;19924;-65
2024/01/09 15:20:11;;;;;;;;;;;-1.30;99.90;;;;;;5082475;28;20493;-65
2024/01/09 15:22:39;;;;;;;;;;;-1.30;99.90;;;;;;5084524;28;20017;-65
2024/01/09 15:25:05;;;;;;;;;;;-1.40;99.90;;;;;;5082791;28;19932;-66
2024/01/09 15:27:32;;;;;;;;;;;-1.40;99.90;;;;;;5083475;28;19936;-65
2024/01/09 15:29:59;;;;;;;;;;;-1.50;99.90;;;;;;5092871;28;19924;-65
2024/01/09 15:32:25;;;;;;;;;;;-1.60;99.90;;;;;;5102038;28;19931;-65
2024/01/09 15:34:52;;;;;;;;;;;-1.60;99.90;;;;;;5102215;28;20746;-65
2024/01/09 15:37:19;;;;;;;;;;;-1.70;99.90;;;;;;5100926;28;20394;-65
2024/01/09 15:39:46;;;;;;;;;;;-1.70;99.90;;;;;;5102223;28;19932;-65
2024/01/09 15:42:13;;;;;;;;;;;-1.80;99.90;;;;;;5091102;28;19985;-65
2024/01/09 15:44:39;;;;;;;;;;;-1.80;99.90;;;;;;5088361;28;19932;-66
2024/01/09 15:47:07;;;;;;;;;;;-1.80;99.90;;;;;;5088337;28;19932;-65
2024/01/09 15:49:37;;;;;;;;;;;-1.90;99.90;;;;;;5087469;28;20019;-65
2024/01/09 15:52:04;;;;;;;;;;;-1.90;99.90;;;;;;5088247;28;19932;-65
2024/01/09 15:54:36;;;;;;;;;;;-1.90;99.90;;;;;;5087903;28;19931;-66
2024/01/09 15:57:04;;;;;;;;;;;-1.90;99.90;;;;;;5084575;28;19924;-66
2024/01/09 15:59:31;;;;;;;;;;;-2.00;99.90;;;;;;5088659;28;19932;-66
2024/01/09 16:01:57;;;;;;;;;;;-2.00;99.90;;;;;;5087393;28;19961;-66
2024/01/09 16:04:24;;;;;;;;;;;-2.10;99.90;;;;;;5088940;28;19936;-64
2024/01/09 16:06:50;;;;;;;;;;;-2.10;99.90;;;;;;5086589;28;19928;-66
2024/01/09 16:09:17;;;;;;;;;;;-2.20;99.90;;;;;;5087420;28;20359;-66
2024/01/09 16:11:47;;;;;;;;;;;-2.30;99.90;;;;;;5088493;28;19932;-67
2024/01/09 16:14:14;;;;;;;;;;;-2.20;99.90;;;;;;5087489;28;20001;-67
2024/01/09 16:16:41;;;;;;;;;;;-2.30;99.90;;;;;;5086798;28;19932;-66
2024/01/09 16:19:08;;;;;;;;;;;-2.40;99.90;;;;;;5086053;28;19943;-66
2024/01/09 16:21:35;;;;;;;;;;;-2.50;99.90;;;;;;5087613;28;19928;-67
2024/01/09 16:24:01;;;;;;;;;;;-2.50;99.90;;;;;;5086977;28;19928;-66
2024/01/09 16:26:28;;;;;;;;;;;-2.50;99.90;;;;;;5087222;28;19932;-67
2024/01/09 16:28:55;;;;;;;;;;;-2.60;99.90;;;;;;5086476;28;20595;-67
2024/01/09 16:31:23;;;;;;;;;;;-2.60;99.90;;;;;;5086969;28;19928;-67
2024/01/09 16:33:49;;;;;;;;;;;-2.60;99.90;;;;;;5086303;28;19993;-67
2024/01/09 16:36:16;;;;;;;;;;;-2.60;99.90;;;;;;5084626;28;19981;-67
2024/01/09 16:38:43;;;;;;;;;;;-2.60;99.90;;;;;;5086746;28;20340;-67
2024/01/09 16:41:09;;;;;;;;;;;-2.60;99.90;;;;;;5087700;28;19935;-67
2024/01/09 16:43:36;;;;;;;;;;;-2.70;99.90;;;;;;5087340;28;20348;-67
2024/01/09 16:46:02;;;;;;;;;;;-2.60;99.90;;;;;;5086376;28;19977;-66
2024/01/09 16:48:30;;;;;;;;;;;-2.70;99.90;;;;;;5088558;28;20420;-67
2024/01/09 16:50:57;;;;;;;;;;;-2.70;99.90;;;;;;5087677;28;19985;-67
2024/01/09 16:53:24;;;;;;;;;;;-2.70;99.90;;;;;;5086698;28;19981;-67
2024/01/09 16:55:54;;;;;;;;;;;-2.80;99.90;;;;;;5084779;28;19969;-67
2024/01/09 16:58:20;;;;;;;;;;;-2.80;99.90;;;;;;5086551;28;20027;-67
2024/01/09 17:00:47;;;;;;;;;;;-2.90;99.90;;;;;;5086695;28;19969;-67
2024/01/09 17:03:13;;;;;;;;;;;-2.90;99.90;;;;;;5088192;28;20310;-67
2024/01/09 17:05:42;;;;;;;;;;;-2.90;99.90;;;;;;5086264;28;19932;-67
2024/01/09 17:08:08;;;;;;;;;;;-2.90;99.90;;;;;;5086454;28;19940;-67
2024/01/09 17:10:35;;;;;;;;;;;-3.00;99.90;;;;;;5087252;28;19938;-67
2024/01/09 17:13:02;;;;;;;;;;;-3.00;99.90;;;;;;5086596;28;21105;-67
2024/01/09 17:15:28;;;;;;;;;;;-3.10;99.90;;;;;;5086365;28;19924;-67
2024/01/09 17:17:56;;;;;;;;;;;-3.10;99.90;;;;;;5087075;28;19932;-67
2024/01/09 17:20:23;;;;;;;;;;;-3.10;99.90;;;;;;5087115;28;20025;-67
2024/01/09 17:22:51;;;;;;;;;;;-3.40;99.90;;;;;;5087298;28;19939;-66
2024/01/09 17:25:18;;;;;;;;;;;-3.40;99.90;;;;;;5085248;28;19928;-67
2024/01/09 17:27:44;;;;;;;;;;;-3.40;99.90;;;;;;5085678;28;20667;-65
2024/01/09 17:30:12;;;;;;;;;;;-3.50;99.90;;;;;;5085451;28;19939;-65
2024/01/09 17:32:39;;;;;;;;;;;-3.40;99.90;;;;;;5087684;28;19986;-67
2024/01/09 17:35:05;;;;;;;;;;;-3.60;99.90;;;;;;5085002;28;20664;-67
2024/01/09 17:37:32;;;;;;;;;;;-3.50;99.90;;;;;;5086981;28;19977;-67
2024/01/09 17:40:00;;;;;;;;;;;;;;;;;;5086104;28;19992;-67
2024/01/09 17:42:31;;;;;;;;;;;-3.60;99.90;;;;;;5086493;28;20006;-67
2024/01/09 17:44:58;;;;;;;;;;;-3.60;99.90;;;;;;5087512;28;19932;-67
2024/01/09 17:47:25;;;;;;;;;;;-3.70;99.90;;;;;;5085113;28;20414;-67
2024/01/09 17:49:52;;;;;;;;;;;-3.40;99.90;;;;;;5083942;28;19939;-67
2024/01/09 17:52:19;;;;;;;;;;;-3.70;99.90;;;;;;5086605;28;19942;-67
2024/01/09 17:54:46;;;;;;;;;;;-3.60;99.90;;;;;;5086937;28;20408;-67
2024/01/09 17:57:12;;;;;;;;;;;-3.80;99.90;;;;;;5085142;28;19924;-67
2024/01/09 17:59:43;;;;;;;;;;;-3.80;99.90;;;;;;5086193;28;19924;-66
2024/01/09 18:02:08;;;;;;;;;;;-4.70;99.90;;;;;;5085164;28;19936;-68
2024/01/09 18:04:37;;;;;;;;;;;-3.70;99.90;;;;;;5081346;28;19927;-67
2024/01/09 18:07:04;;;;;;;;;;;-3.80;99.90;;;;;;5087365;28;19935;-68
2024/01/09 18:09:33;;;;;;;;;;;-3.20;99.90;;;;;;5083379;28;19938;-68
2024/01/09 18:15:25;;;;;;;;;;;;;;;;;;5089287;28;20533;-65
2024/01/09 18:17:54;;;;;;;;;;;-3.00;99.90;;;;;;5086666;28;19978;-65
2024/01/09 18:20:23;;;;;;;;;;;-5.00;99.90;;;;;;5070930;28;20437;-66
2024/01/09 18:22:51;;;;;;;;;;;-3.10;99.90;;;;;;5078661;28;20372;-67
2024/01/09 18:25:18;;;;;;;;;;;-4.10;99.90;;;;;;5081304;28;20306;-67
2024/01/09 18:27:44;;;;;;;;;;;-4.30;99.90;;;;;;5084781;28;19932;-67
2024/01/09 18:30:11;;;;;;;;;;;;;;;;;;5081627;28;19979;-67
2024/01/09 18:32:38;;;;;;;;;;;-2.90;99.90;;;;;;5086470;28;19929;-67
2024/01/09 18:35:08;;;;;;;;;;;-3.00;99.90;;;;;;5078178;28;19937;-67
2024/01/09 18:37:35;;;;;;;;;;;-4.30;99.90;;;;;;5083377;28;19925;-67
2024/01/09 18:40:03;;;;;;;;;;;;;;;;;;5080397;28;19929;-67
2024/01/09 18:42:30;;;;;;;;;;;-3.00;99.90;;;;;;5086627;28;20299;-67
2024/01/09 18:44:57;;;;;;;;;;;;;;;;;;5084554;28;19928;-67
2024/01/09 18:47:23;;;;;;;;;;;-3.70;99.90;;;;;;5079151;28;19960;-66
2024/01/09 18:49:50;;;;;;;;;;;-4.20;99.90;;;;;;5085428;28;20446;-66
2024/01/09 18:52:18;;;;;;;;;;;-3.00;99.90;;;;;;5084723;28;19929;-66
2024/01/09 18:54:45;;;;;;;;;;;-3.70;99.90;;;;;;5085493;28;19969;-66
2024/01/09 18:57:11;;;;;;;;;;;-4.90;99.90;;;;;;5076711;28;20345;-67
2024/01/09 18:59:38;;;;;;;;;;;-4.30;99.90;;;;;;5080080;28;19978;-66
2024/01/09 19:02:05;;;;;;;;;;;-5.30;99.90;;;;;;5082986;28;19928;-66
2024/01/09 19:04:36;;;;;;;;;;;-3.90;99.90;;;;;;5081029;28;20027;-66
2024/01/09 19:07:04;;;;;;;;;;;-4.30;99.90;;;;;;5073867;28;19970;-66
2024/01/09 19:09:34;;;;;;;;;;;-4.20;99.90;;;;;;5084256;28;19928;-66
2024/01/09 19:12:00;;;;;;;;;;;-2.70;99.90;;;;;;5082459;28;19930;-66
2024/01/09 19:14:27;;;;;;;;;;;-4.80;99.90;;;;;;5096242;28;19943;-66
2024/01/09 19:16:54;;;;;;;;;;;-4.70;99.90;;;;;;5103461;28;19923;-67
2024/01/09 19:19:21;;;;;;;;;;;-4.20;99.90;;;;;;5103844;28;19981;-66
2024/01/09 19:21:49;;;;;;;;;;;-4.70;99.90;;;;;;5103869;28;19963;-66
2024/01/09 19:24:16;;;;;;;;;;;-4.90;99.90;;;;;;5094573;28;20011;-66
2024/01/09 19:26:45;;;;;;;;;;;-4.10;99.90;;;;;;5084212;28;19928;-67
2024/01/09 19:29:11;;;;;;;;;;;-4.80;99.90;;;;;;5084848;28;19924;-66
2024/01/09 19:31:41;;;;;;;;;;;-4.10;99.90;;;;;;5090275;28;19924;-66
2024/01/09 19:34:07;;;;;;;;;;;;;;;;;;5087154;28;19934;-67
2024/01/09 19:36:34;;;;;;;;;;;-4.40;99.90;;;;;;5084517;28;20447;-66
2024/01/09 19:39:01;;;;;;;;;;;;;;;;;;5083735;28;19925;-67
2024/01/09 19:41:28;;;;;;;;;;;-5.80;99.90;;;;;;5077687;28;19933;-67
2024/01/09 19:43:55;;;;;;;;;;;-4.70;99.90;;;;;;5075393;28;19928;-66
2024/01/09 19:46:23;;;;;;;;;;;;;;;;;;5077799;28;19985;-67
2024/01/09 19:48:50;;;;;;;;;;;-4.30;99.90;;;;;;5089153;28;19931;-66
2024/01/09 19:51:17;;;;;;;;;;;-3.10;99.90;;;;;;5087828;28;20434;-66
2024/01/09 19:53:43;;;;;;;;;;;-4.90;99.90;;;;;;5089372;28;19931;-67
2024/01/09 19:56:10;;;;;;;;;;;-5.20;99.90;;;;;;5087115;28;20386;-67
2024/01/09 19:58:37;;;;;;;;;;;-5.40;99.90;;;;;;5089306;28;19990;-66
2024/01/09 20:01:04;;;;;;;;;;;;;;;;;;5082501;28;19950;-67
2024/01/09 20:03:31;;;;;;;;;;;-4.10;99.90;;;;;;5081420;28;19924;-66
2024/01/09 20:05:58;;;;;;;;;;;-5.30;99.90;;;;;;5088259;28;19931;-67
2024/01/09 20:08:24;;;;;;;;;;;-5.40;99.90;;;;;;5085782;28;19993;-66
2024/01/09 20:10:52;;;;;;;;;;;-4.60;99.90;;;;;;5088284;28;19924;-67
2024/01/09 20:13:18;;;;;;;;;;;-4.60;99.90;;;;;;5082834;28;19925;-67
2024/01/09 20:15:45;;;;;;;;;;;-4.30;99.90;;;;;;5089004;28;20333;-66
2024/01/09 20:18:11;;;;;;;;;;;-3.90;99.90;;;;;;5086579;28;19997;-66
2024/01/09 20:20:39;;;;;;;;;;;-5.00;99.90;;;;;;5084727;28;19924;-67
2024/01/09 20:23:07;;;;;;;;;;;-5.40;99.90;;;;;;5086636;28;19928;-67
2024/01/09 20:25:33;;;;;;;;;;;-5.50;99.90;;;;;;5088782;28;20043;-66
2024/01/09 20:28:00;;;;;;;;;;;-5.40;99.90;;;;;;5086976;28;19924;-66
2024/01/09 20:30:27;;;;;;;;;;;-5.40;99.90;;;;;;5083924;28;19924;-66
2024/01/09 20:32:53;;;;;;;;;;;-4.50;99.90;;;;;;5087774;28;19924;-67
2024/01/09 20:35:20;;;;;;;;;;;-6.00;99.90;;;;;;5080739;28;19925;-67
2024/01/09 20:37:47;;;;;;;;;;;;;;;;;;5087382;28;19924;-67
2024/01/09 20:40:15;;;;;;;;;;;-4.50;99.90;;;;;;5078378;28;20002;-67
2024/01/09 20:42:41;;;;;;;;;;;-5.50;99.90;;;;;;5087857;28;19931;-67
2024/01/09 20:45:08;;;;;;;;;;;-4.40;99.90;;;;;;5080372;28;19925;-67
2024/01/09 20:47:35;;;;;;;;;;;-5.60;99.90;;;;;;5082664;28;19924;-67
2024/01/09 20:50:02;;;;;;;;;;;-5.50;99.90;;;;;;5076004;28;19948;-67
2024/01/09 20:52:29;;;;;;;;;;;-6.00;99.90;;;;;;5084850;28;19924;-67
2024/01/09 20:54:55;;;;;;;;;;;-6.10;99.90;;;;;;5080840;28;20008;-67
2024/01/09 20:57:27;;;;;;;;;;;;;;;;;;5085887;28;19932;-68
2024/01/09 20:59:54;;;;;;;;;;;;;;;;;;5083831;28;19932;-68
2024/01/09 21:02:22;;;;;;;;;;;-5.00;99.90;;;;;;5082872;28;20358;-68
2024/01/09 21:04:49;;;;;;;;;;;-5.50;99.90;;;;;;5085113;28;19928;-68
2024/01/09 21:07:16;;;;;;;;;;;-4.60;99.90;;;;;;5084592;28;20272;-67
2024/01/09 21:09:43;;;;;;;;;;;-5.60;99.90;;;;;;5084963;28;19970;-68
2024/01/09 21:12:09;;;;;;;;;;;-6.30;99.90;;;;;;5082802;28;19971;-69
2024/01/09 21:14:36;;;;;;;;;;;-7.10;99.90;;;;;;5079763;28;19989;-67
2024/01/09 21:17:02;;;;;;;;;;;-6.30;99.90;;;;;;5082704;28;19932;-67
2024/01/09 21:19:30;;;;;;;;;;;-6.70;99.90;;;;;;5085700;28;19924;-67
2024/01/09 21:21:57;;;;;;;;;;;-5.80;99.90;;;;;;5073413;28;19925;-67
2024/01/09 21:24:23;;;;;;;;;;;-5.90;99.90;;;;;;5084828;28;19924;-67
2024/01/09 21:26:51;;;;;;;;;;;-5.60;99.90;;;;;;5085910;28;19924;-68
2024/01/09 21:29:17;;;;;;;;;;;-5.50;99.90;;;;;;5078472;28;19974;-67
2024/01/09 21:31:44;;;;;;;;;;;-6.40;99.90;;;;;;5080977;28;20475;-68
2024/01/09 21:34:10;;;;;;;;;;;-8.20;99.90;;;;;;5082917;28;19970;-67
2024/01/09 21:36:41;;;;;;;;;;;-5.80;99.90;;;;;;5075816;28;20291;-68
2024/01/09 21:39:08;;;;;;;;;;;-6.00;99.90;;;;;;5083269;28;19928;-67
2024/01/09 21:41:34;;;;;;;;;;;-6.30;99.90;;;;;;5082687;28;20412;-67
2024/01/09 21:44:00;;;;;;;;;;;-6.10;99.90;;;;;;5083519;28;19931;-67
2024/01/09 21:46:27;;;;;;;;;;;-6.00;99.90;;;;;;5084203;28;19950;-68
2024/01/09 21:48:54;;;;;;;;;;;-5.70;99.90;;;;;;5084654;28;19928;-67
2024/01/09 21:51:20;;;;;;;;;;;-5.80;99.90;;;;;;5079823;28;20409;-67
2024/01/09 21:53:48;;;;;;;;;;;-6.00;99.90;;;;;;5085182;28;19924;-67
2024/01/09 21:56:14;;;;;;;;;;;-5.80;99.90;;;;;;5067596;28;19929;-68
2024/01/09 21:58:41;;;;;;;;;;;-5.00;99.90;;;;;;5068032;28;19940;-68
2024/01/09 22:01:08;;;;;;;;;;;-6.10;99.90;;;;;;5065901;28;19933;-68
2024/01/09 22:03:35;;;;;;;;;;;-5.40;99.90;;;;;;5068725;28;20026;-67
2024/01/09 22:06:01;;;;;;;;;;;-5.70;99.90;;;;;;5067599;28;20022;-67
2024/01/09 22:08:28;;;;;;;;;;;-6.00;99.90;;;;;;5065584;28;20302;-68
2024/01/09 22:10:55;;;;;;;;;;;-5.80;99.90;;;;;;5066883;28;20047;-67
2024/01/09 22:13:22;;;;;;;;;;;-5.90;99.90;;;;;;5067836;28;19929;-68
2024/01/09 22:15:51;;;;;;;;;;;-6.00;99.90;;;;;;5067474;28;19978;-67
2024/01/09 22:18:17;;;;;;;;;;;-6.30;99.90;;;;;;5067559;28;20841;-68
2024/01/09 22:20:44;;;;;;;;;;;;;;;;;;5067703;28;19967;-67
2024/01/09 22:23:11;;;;;;;;;;;-6.20;99.90;;;;;;5068670;28;20393;-67
2024/01/09 22:25:37;;;;;;;;;;;-6.20;99.90;;;;;;5053591;28;19982;-67
2024/01/09 22:28:05;;;;;;;;;;;-6.40;99.90;;;;;;5081091;28;19950;-67
2024/01/09 22:30:32;;;;;;;;;;;-6.30;99.90;;;;;;5078695;28;19970;-67
2024/01/09 22:32:58;;;;;;;;;;;-7.00;99.90;;;;;;5074826;28;19924;-66
2024/01/09 22:35:25;;;;;;;;;;;-6.30;99.90;;;;;;5067710;28;19978;-67
2024/01/09 22:37:52;;;;;;;;;;;-7.00;99.90;;;;;;5077699;28;19951;-67
2024/01/09 22:40:18;;;;;;;;;;;-6.20;99.90;;;;;;5080036;28;19925;-67
2024/01/09 22:42:45;;;;;;;;;;;-6.40;99.90;;;;;;5077047;28;19924;-67
2024/01/09 22:45:13;;;;;;;;;;;-6.40;99.90;;;;;;5079376;28;19972;-67
2024/01/09 22:47:39;;;;;;;;;;;-6.60;99.90;;;;;;5082474;28;19928;-67
2024/01/09 22:50:06;;;;;;;;;;;-6.30;99.90;;;;;;5073278;28;20303;-67
2024/01/09 22:52:33;;;;;;;;;;;-6.60;99.90;;;;;;5079662;28;19924;-67
2024/01/09 22:54:59;;;;;;;;;;;-6.30;99.90;;;;;;5075505;28;19970;-67
2024/01/09 22:57:26;;;;;;;;;;;-6.50;99.90;;;;;;5076058;28;19978;-67
2024/01/09 22:59:53;;;;;;;;;;;-7.20;99.90;;;;;;5068842;28;19991;-69
2024/01/09 23:02:21;;;;;;;;;;;-6.40;99.90;;;;;;5077622;28;19925;-68
2024/01/09 23:04:47;;;;;;;;;;;-6.30;99.90;;;;;;5081263;28;20389;-67
2024/01/09 23:07:14;;;;;;;;;;;-6.40;99.90;;;;;;5078400;28;19928;-67
2024/01/09 23:09:40;;;;;;;;;;;-6.60;99.90;;;;;;5080352;28;19973;-67
2024/01/09 23:12:07;;;;;;;;;;;-6.50;99.90;;;;;;5078742;28;19928;-67
2024/01/09 23:14:33;;;;;;;;;;;-6.40;99.90;;;;;;5077042;28;19924;-67
2024/01/09 23:17:00;;;;;;;;;;;-6.50;99.90;;;;;;5074212;28;19932;-68
2024/01/09 23:19:28;;;;;;;;;;;-6.50;99.90;;;;;;5078191;28;20443;-67
2024/01/09 23:21:54;;;;;;;;;;;-6.60;99.90;;;;;;5078320;28;19945;-67
2024/01/09 23:24:21;;;;;;;;;;;-6.60;99.90;;;;;;5079189;28;20003;-67
2024/01/09 23:26:47;;;;;;;;;;;-6.70;99.90;;;;;;5080970;28;19927;-67
2024/01/09 23:29:14;;;;;;;;;;;-6.60;99.90;;;;;;5076868;28;19924;-67
2024/01/09 23:31:40;;;;;;;;;;;-6.30;99.90;;;;;;5079908;28;19932;-67
2024/01/09 23:34:07;;;;;;;;;;;-6.70;99.90;;;;;;5078419;28;20357;-67
2024/01/09 23:36:35;;;;;;;;;;;-6.70;99.90;;;;;;5080642;28;19925;-67
2024/01/09 23:39:01;;;;;;;;;;;-6.80;99.90;;;;;;5076906;28;20291;-67
2024/01/09 23:41:28;;;;;;;;;;;-6.80;99.90;;;;;;5079566;28;19978;-67
2024/01/09 23:43:54;;;;;;;;;;;-6.90;99.90;;;;;;5079223;28;20405;-67
2024/01/09 23:46:21;;;;;;;;;;;-6.80;99.90;;;;;;5077815;28;19928;-67
2024/01/09 23:48:47;;;;;;;;;;;-6.80;99.90;;;;;;5080153;28;20413;-67
2024/01/09 23:51:14;;;;;;;;;;;;;;;;;;5075776;28;19926;-67
2024/01/09 23:53:42;;;;;;;;;;;-6.90;99.90;;;;;;5073576;28;19925;-67
2024/01/09 23:57:10;;;;;;;;;;;-6.60;99.90;;;;;;5088813;28;20309;-67
